Flight Track Log - Related Links

Times and Time Zones

All times are in EDT time to prevent confusion due to time zone crossing. See the TAM9377 flight status page for this flight to view local times or setup timezone preferences in your user account.

Time Position Orientation Groundspeed Altitude Reporting Facility
EDT Latitude Longitude Course Direction KTS MPH feet Rate Location/Type
Thu 08:37:00 AM -1.3679 -61.1353 327° Northwest  Level Estimated
Thu 08:38:00 AM -1.2715 -61.1978 327° Northwest  Level Estimated
Thu 08:39:00 AM -1.1751 -61.2604 327° Northwest  Level Estimated
Thu 08:40:00 AM -1.0787 -61.3230 327° Northwest  Level Estimated
Thu 08:41:00 AM -0.9823 -61.3855 327° Northwest  Level Estimated
Thu 08:42:00 AM -0.8859 -61.4481 327° Northwest  Level Estimated
Thu 08:43:00 AM -0.7893 -61.5092 328° Northwest  Level FlightAware Approximate
Thu 08:44:00 AM -0.6927 -61.5703 328° Northwest  Level FlightAware Approximate
Thu 08:45:00 AM -0.5961 -61.6314 328° Northwest  Level FlightAware Approximate
Thu 08:46:00 AM -0.4995 -61.6925 328° Northwest  Level FlightAware Approximate
Thu 08:47:00 AM -0.4029 -61.7536 328° Northwest  Level FlightAware Approximate
Thu 08:48:00 AM -0.3063 -61.8147 328° Northwest  Level FlightAware Approximate
Thu 08:49:00 AM -0.2096 -61.8758 328° Northwest  Level FlightAware Approximate
Thu 08:50:00 AM -0.1130 -61.9369 328° Northwest  Level FlightAware Approximate
Thu 08:51:00 AM -0.0164 -61.9980 328° Northwest  Level FlightAware Approximate
Thu 08:52:00 AM 0.0802 -62.0591 328° Northwest  Level FlightAware Approximate
Thu 08:53:00 AM 0.1768 -62.1202 328° Northwest  Level FlightAware Approximate
Thu 08:54:00 AM 0.2734 -62.1813 328° Northwest  Level FlightAware Approximate
Thu 08:55:00 AM 0.3700 -62.2424 328° Northwest  Level FlightAware Approximate
Thu 08:56:00 AM 0.4666 -62.3035 328° Northwest  Level FlightAware Approximate
Thu 08:57:00 AM 0.5632 -62.3646 328° Northwest  Level FlightAware Approximate
Thu 08:58:00 AM 0.6598 -62.4258 328° Northwest  Level FlightAware Approximate
Thu 08:59:00 AM 0.7564 -62.4869 328° Northwest  Level FlightAware Approximate
Thu 09:00:00 AM 0.8530 -62.5480 328° Northwest  Level FlightAware Approximate
Thu 09:01:00 AM 0.9496 -62.6091 328° Northwest  Level FlightAware Approximate
Thu 09:02:00 AM 1.0462 -62.6702 328° Northwest  Level FlightAware Approximate
Thu 09:03:00 AM 1.1428 -62.7313 328° Northwest  Level FlightAware Approximate
Thu 09:04:00 AM 1.2394 -62.7925 328° Northwest  Level FlightAware Approximate
Thu 09:05:00 AM 1.3360 -62.8536 328° Northwest  Level FlightAware Approximate
Thu 09:06:00 AM 1.4326 -62.9147 328° Northwest  Level FlightAware Approximate
Thu 09:07:00 AM 1.5292 -62.9759 328° Northwest  Level FlightAware Approximate
Thu 09:08:00 AM 1.6258 -63.0370 328° Northwest  Level FlightAware Approximate
Thu 09:09:00 AM 1.7224 -63.0982 328° Northwest  Level FlightAware Approximate
Thu 09:10:00 AM 1.8190 -63.1593 328° Northwest  Level FlightAware Approximate
Thu 09:11:00 AM 1.9155 -63.2205 328° Northwest  Level FlightAware Approximate
Thu 09:12:00 AM 2.0121 -63.2817 328° Northwest  Level FlightAware Approximate
Thu 09:13:00 AM 2.1087 -63.3428 328° Northwest  Level FlightAware Approximate
Thu 09:14:00 AM 2.2053 -63.4040 328° Northwest  Level FlightAware Approximate
Thu 09:15:00 AM 2.3019 -63.4652 328° Northwest  Level FlightAware Approximate
Thu 09:16:00 AM 2.3984 -63.5265 328° Northwest  Level FlightAware Approximate
Thu 09:17:00 AM 2.4950 -63.5877 328° Northwest  Level FlightAware Approximate
Thu 09:18:00 AM 2.5916 -63.6489 328° Northwest  Level FlightAware Approximate
Thu 09:19:00 AM 2.6881 -63.7101 328° Northwest  Level FlightAware Approximate
Thu 09:20:00 AM 2.7847 -63.7714 328° Northwest  Level FlightAware Approximate
Thu 09:21:00 AM 2.8812 -63.8326 328° Northwest  Level FlightAware Approximate
Thu 09:22:00 AM 2.9778 -63.8939 328° Northwest  Level FlightAware Approximate
Thu 09:23:00 AM 3.0744 -63.9551 328° Northwest  Level FlightAware Approximate
Thu 09:24:00 AM 3.1709 -64.0164 328° Northwest  Level FlightAware Approximate
Thu 09:25:00 AM 3.2674 -64.0777 328° Northwest  Level FlightAware Approximate
Thu 09:26:00 AM 3.3640 -64.1390 328° Northwest  Level FlightAware Approximate
Thu 09:27:00 AM 3.4605 -64.2003 328° Northwest  Level FlightAware Approximate
Thu 09:28:00 AM 3.5570 -64.2617 328° Northwest  Level FlightAware Approximate

Login

Don't have an account? Register now (free) for customized features, flight alerts, and more!